Portada
METAR-TAF:

METAR-TAF

Aeropuertos :

Tarawa, Kiribati

Aeropuerto Internacional Bonriki

latitud: 01-21N, longitud: 172-55E, altitud: 2 m

Observación

El informe se hizo hace 59 minutos, a las 05:00 UTC
Viento 12 kt del este
Temperatura 30°C
Humedad 70%
Presión 1007 hPa
Visibilidad 10 km o más
Escasas nubes a una altura de 2000 ft
Nubes dispersas a una altura de 30000 ft

METAR: NGTA 170500Z 09012KT 9999 FEW020 SCT300 30/24 Q1007

Hora: 19:59 (05:59 UTC)

Pronóstico

El informe se hizo hace 39 minutos, a las 05:20 UTC
Pronóstico válido del 17 a las 06 UTC al 18 a las 06 UTC
Viento 12 kt del este
Visibilidad 10 km o más
Escasas nubes a una altura de 2000 ft
Nubes dispersas a una altura de 10000 ft

TAF: NGTA 170520Z 1706/1806 09012KT 9999 FEW020 SCT100

Observaciones y pronósticos meteorológicos de más de 4000 aeropuertos (mensajes METAR y TAF).

Los puntos amarillos y rojos representan las estaciones disponibles.

Ponga el ratón en el punto deseado para ver el nombre de la estación.

Haga clic para ver las observaciones y los pronósticos meteorológicos.

Para cambiar el mapa : haga clic en los botones verdes con una cruz de color negro para hacer un zoom, en el botón verde con un guión para alejar o en las flechas verdes para mapas adyacentes.


METAR-TAF: